Terminal Aerodrome Forecast
Issued by NWS

Home | Current Version | Previous Version | Text Only | Print | Product List | Glossary On
Versions: 1 2 3 4 5 6 7 8 9 10 11 12 13 14 15 16 17 18 19 20 21 22 23 24 25 26 27 28 29 30 31 32
000
FTUS41 KOKX 261943 AAA
TAFGON
TAF AMD
KGON 261943Z 2620/2718 07007KT 3SM -SHRA BR OVC004
     FM262200 06006KT 2SM BR OVC004
     FM262300 06004KT 1/2SM FG OVC003
     FM270100 VRB02KT 1/4SM FG VV002
     FM271300 VRB03KT 2SM BR BKN004 OVC010=

USA.gov is the U.S. government's official web portal to all federal, state and local government web resources and services.